Terminal Aerodrome Forecast
Issued by NWS

Home | Current Version | Previous Version | Text Only | Print | Product List | Glossary On
Versions: 1 2 3 4 5 6 7 8 9 10 11 12 13 14 15 16 17 18 19
000
FTUS46 KMFR 301300 AAA
TAFLMT
TAF AMD
KLMT 301314Z 3013/3112 VRB02KT 2SM BR FEW002 BKN150
      TEMPO 3013/3014 1SM BR VV002
     FM301400 15006KT 4SM BR FEW002 BKN150
     FM301500 18011KT P6SM SCT150 BKN250
     FM310700 19005KT P6SM VCSH OVC050=

USA.gov is the U.S. government's official web portal to all federal, state and local government web resources and services.